Latest Coastal Weather Observations for Dunalley

IDT60701

Issued at 9:32 pm EDT Tuesday 27 February 2024 (issued every 10 minutes, with the page automatically refreshed every 10 minutes)

About coastal observations | Map of coastal stations | Coastal observations for TAS | Marine services | Other Formats
Station Details ID: 094254 Name: DUNALLEY (STROUD POINT) Lat: -42.90 Lon: 147.79 Height: 12.43 m
Data from the previous 72 hours. | See also: Recent months at Dunalley
Date/Time
EDT
Wind Sea
Height
m
Swell Vis
km
Cloud Weather Temp
°C
Press
MSL
hPa
Rain since
9am
mm
Dir  Spd
kts
Gust
kts
Height
m
Period
s
Dir
27/09:30pm NE 17 22 - - - - - - - 18.4 1016.0 0.0
27/09:00pm NE 20 25 - - - - - - - 18.3 1015.4 0.0
27/08:30pm NE 20 26 - - - - - - - 18.3 1015.1 0.0
27/08:00pm NE 19 26 - - - - - - - 18.3 1015.3 0.0
27/07:30pm NE 22 27 - - - - - - - 18.8 1015.2 0.0
27/07:00pm NE 23 29 - - - - - - - 19.1 1015.1 0.0
27/06:30pm NE 23 28 - - - - - - - 19.0 1015.3 0.0
27/06:00pm NE 23 28 - - - - - - - 20.3 1015.5 0.0
27/05:30pm NE 21 26 - - - - - - - 19.8 1015.7 0.0
27/05:00pm NE 17 23 - - - - - - - 21.0 1015.9 0.0
27/04:30pm NE 18 22 - - - - - - - 21.1 1016.3 0.0
27/04:00pm ENE 15 20 - - - - - - - 22.1 1016.4 0.0
27/03:30pm ENE 16 20 - - - - - - - 21.6 1016.8 0.0
27/03:00pm ENE 13 18 - - - - - - - 22.8 1017.1 0.0
27/02:30pm ENE 11 15 - - - - - - - 23.3 1017.5 0.0
27/02:00pm ENE 10 14 - - - - - - - 23.3 1017.6 0.0
27/01:30pm NE 10 14 - - - - - - - 22.5 1018.0 0.0
27/01:00pm NE 12 16 - - - - - - - 22.2 1018.2 0.0
27/12:30pm ENE 6 9 - - - - - - - 22.7 1018.7 0.0
27/12:00pm SSW 3 4 - - - - - - - 20.2 1019.1 0.0
27/11:30am SSW 5 6 - - - - - - - 19.3 1019.4 0.0
27/11:00am S 4 5 - - - - - - - 19.3 1019.4 0.0
27/10:30am S 5 7 - - - - - - - 18.6 1019.6 0.0
27/10:00am S 4 7 - - - - - - - 18.1 1019.5 0.0
27/09:30am ESE 3 5 - - - - - - - 17.9 1019.6 0.0
27/09:00am SSE 2 4 - - - - - - - 16.9 1019.8 0.0
27/08:30am SSW 2 3 - - - - - - - 15.2 1019.8 0.0
27/08:00am N 2 2 - - - - - - - 14.3 1019.7 0.0
27/07:30am N 1 2 - - - - - - - 12.9 1019.7 0.0
27/07:00am N 3 5 - - - - - - - 12.3 1019.1 0.0
27/06:30am NNE 4 8 - - - - - - - 12.2 1019.1 0.0
27/06:00am NNE 4 6 - - - - - - - 11.6 1018.8 0.0
27/05:30am NNE 3 5 - - - - - - - 11.7 1018.7 0.0
27/05:00am NNE 1 1 - - - - - - - 12.3 1019.1 0.0
27/04:30am NNE 2 2 - - - - - - - 12.3 1019.4 0.0
27/04:00am NNE 3 4 - - - - - - - 12.2 1019.5 0.0
27/03:30am NE 5 6 - - - - - - - 13.2 1019.4 0.0
27/03:00am NE 7 9 - - - - - - - 13.8 1019.6 0.0
27/02:30am NE 8 10 - - - - - - - 13.5 1019.7 0.0
27/02:00am NE 7 9 - - - - - - - 13.4 1020.2 0.0
27/01:30am NE 7 8 - - - - - - - 13.5 1020.4 0.0
27/01:00am NE 6 8 - - - - - - - 13.6 1020.8 0.0
27/12:30am NE 3 4 - - - - - - - 13.4 1021.0 0.0
27/12:00am CALM 0 0 - - - - - - - 13.1 1021.2 0.0
 
Date/Time
EDT
Wind Sea
Height
m
Swell Vis
km
Cloud Weather Temp
°C
Press
MSL
hPa
Rain since
9am
mm
Dir  Spd
kts
Gust
kts
Height
m
Period
s
Dir
26/11:30pm NE 2 3 - - - - - - - 13.2 1021.2 0.0
26/11:00pm NE 2 4 - - - - - - - 13.9 1021.3 0.0
26/10:30pm NE 2 3 - - - - - - - 14.2 1021.3 0.0
26/10:00pm NE 3 4 - - - - - - - 13.2 1021.2 0.0
26/09:30pm ENE 1 2 - - - - - - - 14.1 1020.8 0.0
26/09:00pm ENE 1 2 - - - - - - - 14.8 1020.4 0.0
26/08:30pm SE 6 8 - - - - - - - 15.7 1020.3 0.0
26/08:00pm SSE 6 8 - - - - - - - 16.2 1019.8 0.0
26/07:30pm S 7 8 - - - - - - - 17.1 1019.5 0.0
26/07:00pm SSE 5 7 - - - - - - - 17.7 1018.9 0.0
26/06:30pm SSE 7 10 - - - - - - - 17.9 1018.7 0.0
26/06:00pm SSE 7 9 - - - - - - - 18.4 1018.7 0.0
26/05:30pm S 7 9 - - - - - - - 18.8 1018.7 0.0
26/05:00pm S 6 8 - - - - - - - 18.8 1018.8 0.0
26/04:30pm S 6 9 - - - - - - - 18.9 1018.9 0.0
26/04:00pm S 8 10 - - - - - - - 18.6 1019.0 0.0
26/03:30pm S 9 12 - - - - - - - 18.7 1019.1 0.0
26/03:00pm S 10 13 - - - - - - - 18.5 1019.4 0.0
26/02:30pm S 10 15 - - - - - - - 18.2 1019.4 0.0
26/02:00pm S 10 14 - - - - - - - 17.9 1019.4 0.0
26/01:30pm SSW 11 15 - - - - - - - 17.4 1019.3 0.0
26/01:00pm SW 12 17 - - - - - - - 17.2 1019.3 0.0
26/12:30pm WSW 14 17 - - - - - - - 16.8 1019.0 0.0
26/12:00pm WSW 15 19 - - - - - - - 16.2 1019.0 0.0
26/11:30am WSW 17 24 - - - - - - - 15.4 1019.1 0.0
26/11:00am WSW 19 23 - - - - - - - 14.9 1018.8 0.0
26/10:30am WSW 19 24 - - - - - - - 14.8 1018.6 0.0
26/10:00am WSW 21 27 - - - - - - - 14.6 1018.2 0.0
26/09:30am WSW 21 27 - - - - - - - 13.6 1017.8 0.0
26/09:00am WSW 19 25 - - - - - - - 13.4 1017.2 0.4
26/08:30am SW 19 25 - - - - - - - 13.8 1016.7 0.4
26/08:00am SW 22 26 - - - - - - - 13.6 1015.9 0.4
26/07:30am SW 24 29 - - - - - - - 13.4 1015.7 0.4
26/07:00am SW 21 25 - - - - - - - 13.2 1015.4 0.4
26/06:30am WSW 25 30 - - - - - - - 13.4 1014.3 0.4
26/06:00am SW 26 32 - - - - - - - 13.4 1014.1 0.4
26/05:30am SW 27 35 - - - - - - - 13.1 1013.4 0.4
26/05:00am SW 27 34 - - - - - - - 13.7 1012.7 0.4
26/04:30am SW 30 38 - - - - - - - 13.6 1012.0 0.4
26/04:18am SW 28 39 - - - - - - - 13.7 1012.2 0.4
26/04:00am SW 30 34 - - - - - - - 13.8 1011.9 0.4
26/03:30am SW 28 37 - - - - - - - 13.9 1011.7 0.4
26/03:00am SW 28 37 - - - - - - Recent precip. 13.6 1011.2 0.4
26/02:30am SSW 25 31 - - - - - - - 13.9 1010.9 0.4
26/02:00am SW 28 35 - - - - - - - 13.7 1010.4 0.0
26/01:30am SW 24 34 - - - - - - - 15.9 1009.6 0.0
26/01:26am SW 21 33 - - - - - - - 17.6 1009.4 0.0
26/01:00am WSW 15 19 - - - - - - - 17.7 1008.6 0.0
26/12:30am WSW 16 22 - - - - - - - 17.5 1008.3 0.0
26/12:00am W 14 24 - - - - - - - 18.7 1008.3 0.0
 
Date/Time
EDT
Wind Sea
Height
m
Swell Vis
km
Cloud Weather Temp
°C
Press
MSL
hPa
Rain since
9am
mm
Dir  Spd
kts
Gust
kts
Height
m
Period
s
Dir
25/11:30pm WNW 9 14 - - - - - - - 18.0 1007.8 0.0
25/11:00pm WNW 10 14 - - - - - - - 18.1 1007.6 0.0
25/10:30pm NW 8 11 - - - - - - - 18.9 1008.0 0.0
25/10:00pm NW 6 9 - - - - - - - 19.1 1008.3 0.0
25/09:30pm NW 9 15 - - - - - - - 19.4 1008.1 0.0
25/09:00pm NW 6 10 - - - - - - - 19.5 1007.8 0.0
25/08:30pm WNW 9 13 - - - - - - - 19.7 1007.5 0.0
25/08:00pm WNW 6 11 - - - - - - - 19.8 1007.5 0.0
25/07:30pm SSE 1 2 - - - - - - - 19.7 1007.0 0.0
25/07:00pm SSE 2 3 - - - - - - - 19.7 1007.5 0.0
25/06:30pm SSE 3 4 - - - - - - - 20.2 1007.4 0.0
25/06:00pm SSE 3 5 - - - - - - - 20.3 1007.4 0.0
25/05:30pm SSE 3 4 - - - - - - - 20.6 1007.4 0.0
25/05:00pm SSE 2 3 - - - - - - - 20.2 1007.6 0.0
25/04:30pm SSE 4 6 - - - - - - - 20.0 1007.8 0.0
25/04:00pm S 6 7 - - - - - - - 20.2 1008.0 0.0
25/03:30pm SSW 7 9 - - - - - - - 20.2 1008.5 0.0
25/03:00pm S 9 12 - - - - - - - 20.0 1008.5 0.0
25/02:30pm SW 9 12 - - - - - - - 20.6 1008.5 0.0
25/02:00pm SW 9 11 - - - - - - - 20.3 1008.2 0.0
25/01:30pm SSW 12 15 - - - - - - - 19.7 1007.8 0.0
25/01:00pm NE 6 9 - - - - - - - 20.2 1007.7 0.0
25/12:30pm NE 3 4 - - - - - - - 20.2 1008.7 0.0
25/12:00pm N 5 11 - - - - - - - 20.1 1009.5 0.0
25/11:30am NNW 3 4 - - - - - - - 19.4 1010.6 0.0
25/11:00am NNW 6 8 - - - - - - - 18.7 1011.2 0.0
25/10:30am WNW 6 7 - - - - - - - 18.4 1012.3 0.0
25/10:00am W 4 6 - - - - - - - 18.1 1012.2 0.0
25/09:30am W 3 6 - - - - - - - 18.0 1012.3 0.0
25/09:00am W 4 7 - - - - - - - 18.1 1012.6 0.0
25/08:30am NNE 4 6 - - - - - - - 17.8 1012.3 0.0
25/08:00am N 4 7 - - - - - - - 17.5 1012.4 0.0
25/07:30am NNE 4 6 - - - - - - - 16.1 1012.3 0.0
25/07:00am NE 7 10 - - - - - - - 15.6 1011.9 0.0
25/06:30am NE 8 12 - - - - - - - 15.6 1012.7 0.0
25/06:00am NNE 7 10 - - - - - - - 15.5 1013.0 0.0
25/05:30am N 6 8 - - - - - - - 15.3 1013.4 0.0
25/05:00am NNE 6 7 - - - - - - - 15.3 1013.6 0.0
25/04:30am NNE 6 8 - - - - - - - 15.0 1013.8 0.0
25/04:00am NNE 6 9 - - - - - - - 14.9 1013.9 0.0
25/03:30am ENE 7 10 - - - - - - - 15.3 1014.4 0.0
25/03:00am NNE 7 10 - - - - - - - 15.6 1014.7 0.0
25/02:30am NNE 9 14 - - - - - - - 15.7 1014.8 0.0
25/02:00am NE 8 11 - - - - - - - 15.3 1015.2 0.0
25/01:30am NE 8 11 - - - - - - - 15.4 1015.6 0.0
25/01:00am NNE 10 13 - - - - - - - 15.8 1016.5 0.0
25/12:30am NNE 14 19 - - - - - - - 16.1 1016.4 0.0
25/12:00am NNE 14 18 - - - - - - - 16.2 1016.7 0.0
 
Date/Time
EDT
Wind Sea
Height
m
Swell Vis
km
Cloud Weather Temp
°C
Press
MSL
hPa
Rain since
9am
mm
Dir  Spd
kts
Gust
kts
Height
m
Period
s
Dir
24/11:30pm NE 16 21 - - - - - - - 16.2 1017.1 0.0
24/11:00pm NNE 12 16 - - - - - - - 16.1 1017.8 0.0
24/10:30pm NE 13 17 - - - - - - - 16.1 1018.4 0.0
24/10:00pm ENE 12 17 - - - - - - - 16.0 1018.6 0.0

Other formats

Comma delimited format used in spreadsheet applications
http://www.bom.gov.au/fwo/IDT60701/IDT60701.94951.axf

JavaScript Object Notation format (JSON) in row-major order
http://www.bom.gov.au/fwo/IDT60701/IDT60701.94951.json

Data quality

Most of these data are generated automatically and are frequently updated. Quality checks on data are not normally performed. It is possible for incorrect values to appear. Refer to information at About Latest Weather Observations and please check the disclaimer before using these data.